Time;durP1;ratioP1;P1;durP2;ratioP2;P2;SDS_P1;SDS_P2;PMS_P1;PMS_P2;Temp;Humidity;BMP_temperature;BMP_pressure;BME280_temperature;BME280_humidity;BME280_pressure;Samples;Min_cycle;Max_cycle;Signal;HPM_P1;HPM_P2
2023/01/01 00:01:23;;;;;;;;;;;13.10;99.90;;;;;;5029928;28;19976;-52
2023/01/01 00:03:50;;;;;;;;;;;13.10;99.90;;;;;;5016658;28;20291;-51
2023/01/01 00:06:15;;;;;;;;;;;13.10;99.90;;;;;;5026459;28;19924;-52
2023/01/01 00:08:41;;;;;;;;;;;13.00;99.90;;;;;;5029237;28;19928;-51
2023/01/01 00:11:07;;;;;;;;;;;12.90;99.90;;;;;;5016192;28;19921;-52
2023/01/01 00:13:33;;;;;;;;;;;12.80;99.90;;;;;;5016207;28;19944;-53
2023/01/01 00:16:04;;;;;;;;;;;12.80;99.90;;;;;;5015726;28;20368;-50
2023/01/01 00:18:30;;;;;;;;;;;12.80;99.90;;;;;;5016244;28;19925;-51
2023/01/01 00:21:06;;;;;;;;;;;12.80;99.90;;;;;;5025235;28;19921;-51
2023/01/01 00:23:32;;;;;;;;;;;12.80;99.90;;;;;;5035844;28;19924;-53
2023/01/01 00:25:57;;;;;;;;;;;12.80;99.90;;;;;;5028734;28;19929;-53
2023/01/01 00:28:23;;;;;;;;;;;12.80;99.90;;;;;;5015958;28;19928;-53
2023/01/01 00:30:48;;;;;;;;;;;12.80;99.90;;;;;;5015876;28;20003;-55
2023/01/01 00:33:14;;;;;;;;;;;12.90;99.90;;;;;;5014397;28;20064;-50
2023/01/01 00:35:39;;;;;;;;;;;12.90;99.90;;;;;;5018108;28;20055;-54
2023/01/01 00:38:05;;;;;;;;;;;12.90;99.90;;;;;;5021504;28;20306;-53
2023/01/01 00:40:31;;;;;;;;;;;12.90;99.90;;;;;;5035519;28;19921;-54
2023/01/01 00:42:57;;;;;;;;;;;13.00;99.90;;;;;;5027698;28;20458;-53
2023/01/01 00:45:22;;;;;;;;;;;12.90;99.90;;;;;;5015878;28;19972;-53
2023/01/01 00:47:52;;;;;;;;;;;12.90;99.90;;;;;;5033315;28;19921;-54
2023/01/01 00:50:18;;;;;;;;;;;12.90;99.90;;;;;;5025938;28;19925;-52
2023/01/01 00:52:43;;;;;;;;;;;12.90;99.90;;;;;;5018953;28;19975;-55
2023/01/01 00:55:09;;;;;;;;;;;12.90;99.90;;;;;;5019516;28;20300;-55
2023/01/01 00:57:34;;;;;;;;;;;12.90;99.90;;;;;;5030206;28;19983;-53
2023/01/01 01:00:00;;;;;;;;;;;12.80;99.90;;;;;;5027136;28;19925;-55
2023/01/01 01:02:25;;;;;;;;;;;12.90;99.90;;;;;;5014267;28;19925;-54
2023/01/01 01:04:51;;;;;;;;;;;12.90;99.90;;;;;;5013943;28;19921;-54
2023/01/01 01:07:16;;;;;;;;;;;12.80;99.90;;;;;;5016245;28;19984;-55
2023/01/01 01:09:42;;;;;;;;;;;12.80;99.90;;;;;;5013300;28;19932;-55
2023/01/01 01:12:07;;;;;;;;;;;12.90;99.90;;;;;;5018347;28;20277;-55
2023/01/01 01:14:33;;;;;;;;;;;12.90;99.90;;;;;;5022518;28;19929;-55
2023/01/01 01:16:58;;;;;;;;;;;12.90;99.90;;;;;;5021214;28;20010;-53
2023/01/01 01:19:25;;;;;;;;;;;12.90;99.90;;;;;;5016312;28;19921;-55
2023/01/01 01:21:51;;;;;;;;;;;12.80;99.90;;;;;;5026599;28;19924;-52
2023/01/01 01:24:16;;;;;;;;;;;12.90;99.90;;;;;;5023818;28;19927;-51
2023/01/01 01:26:42;;;;;;;;;;;12.90;99.90;;;;;;5014943;28;19921;-54
2023/01/01 01:29:08;;;;;;;;;;;12.90;99.90;;;;;;5022959;28;19921;-53
2023/01/01 01:31:33;;;;;;;;;;;12.90;99.90;;;;;;5016913;28;19928;-55
2023/01/01 01:33:59;;;;;;;;;;;12.90;99.90;;;;;;5020307;28;19922;-56
2023/01/01 01:36:25;;;;;;;;;;;12.90;99.90;;;;;;5019390;28;20431;-53
2023/01/01 01:38:50;;;;;;;;;;;13.00;99.90;;;;;;5017156;28;19929;-54
2023/01/01 01:41:17;;;;;;;;;;;13.00;99.90;;;;;;5028196;28;20004;-55
2023/01/01 01:43:43;;;;;;;;;;;13.00;99.90;;;;;;5017153;28;19925;-53
2023/01/01 01:46:13;;;;;;;;;;;13.00;99.90;;;;;;5018528;28;19921;-56
2023/01/01 01:48:41;;;;;;;;;;;13.00;99.90;;;;;;5013671;28;19929;-54
2023/01/01 01:51:07;;;;;;;;;;;13.00;99.90;;;;;;5016556;28;20438;-55
2023/01/01 01:53:33;;;;;;;;;;;13.00;99.90;;;;;;5016552;28;19972;-52
2023/01/01 01:56:01;;;;;;;;;;;13.00;99.90;;;;;;5025485;28;20325;-53
2023/01/01 01:58:28;;;;;;;;;;;12.90;99.90;;;;;;5029325;28;19948;-54
2023/01/01 02:00:54;;;;;;;;;;;12.90;99.90;;;;;;5008473;28;19968;-55
2023/01/01 02:03:26;;;;;;;;;;;12.90;99.90;;;;;;5011638;28;19971;-55
2023/01/01 02:05:52;;;;;;;;;;;12.80;99.90;;;;;;5008523;28;19992;-54
2023/01/01 02:08:18;;;;;;;;;;;12.80;99.90;;;;;;5011533;28;19936;-55
2023/01/01 02:10:43;;;;;;;;;;;12.80;99.90;;;;;;5021688;28;19920;-53
2023/01/01 02:13:09;;;;;;;;;;;12.80;99.90;;;;;;5033849;28;19921;-51
2023/01/01 02:16:00;;;;;;;;;;;12.70;99.90;;;;;;5023721;28;20360;-55
2023/01/01 02:18:48;;;;;;;;;;;12.70;99.90;;;;;;5010932;28;19932;-52
2023/01/01 02:21:17;;;;;;;;;;;12.70;99.90;;;;;;5031966;28;19925;-53
2023/01/01 02:23:45;;;;;;;;;;;;;;;;;;5032503;28;19927;-53
2023/01/01 02:26:37;;;;;;;;;;;12.70;99.90;;;;;;5032891;28;19975;-52
2023/01/01 02:29:21;;;;;;;;;;;12.70;99.90;;;;;;5029096;28;19974;-52
2023/01/01 02:31:49;;;;;;;;;;;12.70;99.90;;;;;;5013993;28;20379;-54
2023/01/01 02:34:17;;;;;;;;;;;12.70;99.90;;;;;;5017484;28;19921;-52
2023/01/01 02:36:50;;;;;;;;;;;12.70;99.90;;;;;;5022423;28;20283;-53
2023/01/01 02:39:16;;;;;;;;;;;12.70;99.90;;;;;;5013421;28;19983;-55
2023/01/01 02:41:44;;;;;;;;;;;12.70;99.90;;;;;;5014350;28;20060;-52
2023/01/01 02:44:10;;;;;;;;;;;12.70;99.90;;;;;;5017724;28;19928;-54
2023/01/01 02:46:36;;;;;;;;;;;12.70;99.90;;;;;;5005520;28;19925;-56
2023/01/01 02:49:01;;;;;;;;;;;12.70;99.90;;;;;;5010749;28;19932;-56
2023/01/01 02:51:33;;;;;;;;;;;12.70;99.90;;;;;;5004310;28;20319;-55
2023/01/01 02:54:17;;;;;;;;;;;12.70;99.90;;;;;;5007048;28;19996;-55
2023/01/01 02:56:47;;;;;;;;;;;12.80;99.90;;;;;;5003127;28;20221;-52
2023/01/01 03:02:57;;;;;;;;;;;12.80;99.90;;;;;;5005542;28;19932;-55
2023/01/01 03:05:32;;;;;;;;;;;12.80;99.90;;;;;;4974170;28;20590;-55
2023/01/01 03:08:06;;;;;;;;;;;12.80;99.90;;;;;;4982152;28;20397;-52
2023/01/01 03:10:43;;;;;;;;;;;12.80;99.90;;;;;;4987843;28;19921;-54
2023/01/01 03:13:19;;;;;;;;;;;12.80;99.90;;;;;;4980568;28;19925;-55
2023/01/01 03:15:54;;;;;;;;;;;12.80;99.90;;;;;;4973264;28;19976;-53
2023/01/01 03:18:32;;;;;;;;;;;12.80;99.90;;;;;;4986416;28;19928;-51
2023/01/01 03:20:58;;;;;;;;;;;12.80;99.90;;;;;;4982609;28;19932;-55
2023/01/01 03:23:28;;;;;;;;;;;12.80;99.90;;;;;;4980166;28;19929;-54
2023/01/01 03:25:56;;;;;;;;;;;12.90;99.90;;;;;;4976722;28;20595;-53
2023/01/01 03:28:27;;;;;;;;;;;12.90;99.90;;;;;;4963895;28;19936;-51
2023/01/01 03:30:53;;;;;;;;;;;12.90;99.90;;;;;;4976132;28;19930;-56
2023/01/01 03:33:31;;;;;;;;;;;12.90;99.90;;;;;;4976307;28;19930;-52
2023/01/01 03:35:59;;;;;;;;;;;13.00;99.90;;;;;;4990225;28;19947;-53
2023/01/01 03:38:27;;;;;;;;;;;13.00;99.90;;;;;;5004655;28;19984;-51
2023/01/01 03:40:57;;;;;;;;;;;13.10;99.90;;;;;;5011133;28;20425;-51
2023/01/01 03:43:43;;;;;;;;;;;13.10;99.90;;;;;;5011440;28;21335;-54
2023/01/01 03:46:09;;;;;;;;;;;13.20;99.90;;;;;;5005294;28;19971;-53
2023/01/01 03:48:54;;;;;;;;;;;13.30;99.90;;;;;;5007155;28;20011;-54
2023/01/01 03:51:35;;;;;;;;;;;13.30;99.90;;;;;;5012853;28;20334;-52
2023/01/01 03:54:03;;;;;;;;;;;13.20;99.90;;;;;;5011409;28;19935;-54
2023/01/01 03:56:44;;;;;;;;;;;13.20;99.90;;;;;;5012013;28;21711;-53
2023/01/01 03:59:09;;;;;;;;;;;13.20;99.90;;;;;;5009909;28;19921;-53
2023/01/01 04:01:38;;;;;;;;;;;13.20;99.90;;;;;;5011044;28;19980;-55
2023/01/01 04:04:04;;;;;;;;;;;13.20;99.90;;;;;;5007002;28;19922;-55
2023/01/01 04:06:31;;;;;;;;;;;13.20;99.90;;;;;;5007487;28;19944;-53
2023/01/01 04:08:57;;;;;;;;;;;13.20;99.90;;;;;;5017928;28;19925;-52
2023/01/01 04:14:09;;;;;;;;;;;13.30;99.90;;;;;;5013572;28;19922;-55
2023/01/01 04:16:35;;;;;;;;;;;13.30;99.90;;;;;;5016584;28;19929;-54
2023/01/01 04:19:00;;;;;;;;;;;13.20;99.90;;;;;;5015865;28;19925;-56
2023/01/01 04:21:25;;;;;;;;;;;13.20;99.90;;;;;;5014391;28;21284;-55
2023/01/01 04:23:51;;;;;;;;;;;13.30;99.90;;;;;;5013794;28;19967;-53
2023/01/01 04:26:16;;;;;;;;;;;13.30;99.90;;;;;;5017127;28;20014;-51
2023/01/01 04:28:42;;;;;;;;;;;13.30;99.90;;;;;;5014296;28;19929;-51
2023/01/01 04:31:10;;;;;;;;;;;13.20;99.90;;;;;;5014422;28;19967;-50
2023/01/01 04:33:36;;;;;;;;;;;13.20;99.90;;;;;;5012653;28;20299;-54
2023/01/01 04:36:10;;;;;;;;;;;13.20;99.90;;;;;;5016573;28;19928;-52
2023/01/01 04:38:36;;;;;;;;;;;13.20;99.90;;;;;;5013640;28;19925;-52
2023/01/01 04:41:02;;;;;;;;;;;13.20;99.90;;;;;;5009363;28;19984;-50
2023/01/01 04:43:28;;;;;;;;;;;13.20;99.90;;;;;;5007804;28;19921;-54
2023/01/01 04:45:54;;;;;;;;;;;13.20;99.90;;;;;;5011012;28;21651;-55
2023/01/01 04:48:20;;;;;;;;;;;13.30;99.90;;;;;;5015124;28;19928;-55
2023/01/01 04:50:52;;;;;;;;;;;13.30;99.90;;;;;;5017013;28;19929;-55
2023/01/01 04:53:17;;;;;;;;;;;13.40;99.90;;;;;;5010447;28;19928;-55
2023/01/01 04:55:43;;;;;;;;;;;13.40;99.90;;;;;;5009688;28;20024;-56
2023/01/01 04:58:08;;;;;;;;;;;13.30;99.90;;;;;;5010989;28;20338;-54
2023/01/01 05:00:34;;;;;;;;;;;13.40;99.90;;;;;;5010018;28;19929;-55
2023/01/01 05:02:59;;;;;;;;;;;13.40;99.90;;;;;;5022599;28;19921;-55
2023/01/01 05:05:25;;;;;;;;;;;13.40;99.90;;;;;;5013543;28;20020;-53
2023/01/01 05:07:50;;;;;;;;;;;13.60;99.90;;;;;;5014811;28;19960;-50
2023/01/01 05:10:16;;;;;;;;;;;13.50;99.90;;;;;;5021109;28;20499;-54
2023/01/01 05:12:41;;;;;;;;;;;13.50;99.90;;;;;;5022440;28;19936;-53
2023/01/01 05:15:07;;;;;;;;;;;13.50;99.90;;;;;;5020992;28;19921;-54
2023/01/01 05:17:33;;;;;;;;;;;13.50;99.90;;;;;;5019918;28;20025;-55
2023/01/01 05:19:59;;;;;;;;;;;13.50;99.90;;;;;;5020368;28;19933;-54
2023/01/01 05:22:24;;;;;;;;;;;13.40;99.90;;;;;;5016823;28;19921;-56
2023/01/01 05:24:50;;;;;;;;;;;13.30;99.90;;;;;;5026400;28;19932;-55
2023/01/01 05:27:15;;;;;;;;;;;13.30;99.90;;;;;;5033634;28;20389;-52
2023/01/01 05:29:41;;;;;;;;;;;13.30;99.90;;;;;;5027069;28;20010;-51
2023/01/01 05:32:06;;;;;;;;;;;13.30;99.90;;;;;;5018269;28;19926;-53
2023/01/01 05:34:32;;;;;;;;;;;;;;;;;;5018378;28;19932;-51
2023/01/01 05:36:58;;;;;;;;;;;13.20;99.90;;;;;;5019900;28;19929;-52
2023/01/01 05:39:23;;;;;;;;;;;13.20;99.90;;;;;;5015402;28;19936;-56
2023/01/01 05:41:50;;;;;;;;;;;13.20;99.90;;;;;;5012288;28;20442;-56
2023/01/01 05:44:18;;;;;;;;;;;13.10;99.90;;;;;;5007000;28;19922;-54
2023/01/01 05:46:43;;;;;;;;;;;13.10;99.90;;;;;;5005235;28;19965;-54
2023/01/01 05:49:10;;;;;;;;;;;13.00;99.90;;;;;;5005109;28;20011;-55
2023/01/01 05:51:36;;;;;;;;;;;13.00;99.90;;;;;;5010396;28;20354;-55
2023/01/01 05:54:01;;;;;;;;;;;12.90;99.90;;;;;;5008760;28;20023;-54
2023/01/01 05:56:27;;;;;;;;;;;12.90;99.90;;;;;;5004968;28;19976;-54
2023/01/01 05:58:53;;;;;;;;;;;12.90;99.90;;;;;;5014114;28;19960;-52
2023/01/01 06:01:20;;;;;;;;;;;12.80;99.90;;;;;;5007030;28;19941;-55
2023/01/01 06:03:47;;;;;;;;;;;12.80;99.90;;;;;;5008396;28;19921;-54
2023/01/01 06:06:14;;;;;;;;;;;12.80;99.90;;;;;;5006458;28;19921;-55
2023/01/01 06:08:40;;;;;;;;;;;12.70;99.90;;;;;;5003124;28;19937;-51
2023/01/01 06:11:07;;;;;;;;;;;12.70;99.90;;;;;;5018972;28;19921;-55
2023/01/01 06:13:33;;;;;;;;;;;12.70;99.90;;;;;;5018142;28;19921;-52
2023/01/01 06:16:00;;;;;;;;;;;12.70;99.90;;;;;;5020720;28;19925;-50
2023/01/01 06:18:28;;;;;;;;;;;12.70;99.90;;;;;;5031488;28;19928;-55
2023/01/01 06:20:53;;;;;;;;;;;12.60;99.90;;;;;;5032388;28;19967;-51
2023/01/01 06:23:19;;;;;;;;;;;12.60;99.90;;;;;;5020000;28;19921;-50
2023/01/01 06:25:45;;;;;;;;;;;;;;;;;;5015672;28;19975;-54
2023/01/01 06:28:10;;;;;;;;;;;12.60;99.90;;;;;;5018451;28;20327;-51
2023/01/01 06:30:36;;;;;;;;;;;12.50;99.90;;;;;;5017640;28;20405;-53
2023/01/01 06:33:02;;;;;;;;;;;12.50;99.90;;;;;;5016201;28;19940;-55
2023/01/01 06:35:28;;;;;;;;;;;12.50;99.90;;;;;;5013303;28;19982;-55
2023/01/01 06:37:53;;;;;;;;;;;12.50;99.90;;;;;;5011432;28;19929;-54
2023/01/01 06:40:19;;;;;;;;;;;12.50;99.90;;;;;;5012200;28;19968;-53
2023/01/01 06:42:44;;;;;;;;;;;12.40;99.90;;;;;;5015434;28;19966;-54
2023/01/01 06:45:12;;;;;;;;;;;12.40;99.90;;;;;;5018840;28;19922;-52
2023/01/01 06:47:37;;;;;;;;;;;12.40;99.90;;;;;;5016030;28;19925;-53
2023/01/01 06:50:03;;;;;;;;;;;12.40;99.90;;;;;;5016254;28;20030;-53
2023/01/01 06:52:29;;;;;;;;;;;12.40;99.90;;;;;;5009300;28;19925;-54
2023/01/01 06:54:54;;;;;;;;;;;12.40;99.90;;;;;;5012043;28;19967;-55
2023/01/01 06:57:20;;;;;;;;;;;12.40;99.90;;;;;;5002143;28;20178;-55
2023/01/01 06:59:45;;;;;;;;;;;12.40;99.90;;;;;;5002157;28;19930;-55
2023/01/01 07:02:11;;;;;;;;;;;12.40;99.90;;;;;;5011669;28;19936;-51
2023/01/01 07:04:37;;;;;;;;;;;12.40;99.90;;;;;;5001751;28;20015;-53
2023/01/01 07:07:02;;;;;;;;;;;12.40;99.90;;;;;;5006122;28;20367;-55
2023/01/01 07:09:28;;;;;;;;;;;12.30;99.90;;;;;;5005075;28;19929;-53
2023/01/01 07:11:53;;;;;;;;;;;12.30;99.90;;;;;;5002620;28;20640;-55
2023/01/01 07:14:19;;;;;;;;;;;12.30;99.90;;;;;;5001213;28;20302;-54
2023/01/01 07:16:44;;;;;;;;;;;12.30;99.90;;;;;;5004012;28;19956;-54
2023/01/01 07:19:10;;;;;;;;;;;12.30;99.90;;;;;;5002212;28;19929;-55
2023/01/01 07:21:42;;;;;;;;;;;12.40;99.90;;;;;;5006296;28;19929;-55
2023/01/01 07:24:09;;;;;;;;;;;12.30;99.90;;;;;;5005859;28;19929;-53
2023/01/01 07:26:35;;;;;;;;;;;12.30;99.90;;;;;;5011676;28;19922;-51
2023/01/01 07:29:00;;;;;;;;;;;12.30;99.90;;;;;;5005675;28;19929;-51
2023/01/01 07:31:26;;;;;;;;;;;12.30;99.90;;;;;;5007623;28;19929;-52
2023/01/01 07:33:51;;;;;;;;;;;12.20;99.90;;;;;;5007090;28;19967;-56
2023/01/01 07:36:17;;;;;;;;;;;12.30;99.90;;;;;;5009222;28;19921;-54
2023/01/01 07:38:43;;;;;;;;;;;12.30;99.90;;;;;;5006285;28;20374;-55
2023/01/01 07:41:09;;;;;;;;;;;12.30;99.90;;;;;;5007498;28;19928;-52
2023/01/01 07:43:34;;;;;;;;;;;12.20;99.90;;;;;;5009976;28;19929;-53
2023/01/01 07:46:00;;;;;;;;;;;12.20;99.90;;;;;;5015917;28;19921;-54
2023/01/01 07:48:26;;;;;;;;;;;12.20;99.90;;;;;;5018100;28;19955;-51
2023/01/01 07:50:51;;;;;;;;;;;12.20;99.90;;;;;;5011191;28;19925;-55
2023/01/01 07:53:17;;;;;;;;;;;12.20;99.90;;;;;;5014999;28;19921;-55
2023/01/01 07:55:44;;;;;;;;;;;12.20;99.90;;;;;;5011162;28;20080;-53
2023/01/01 07:58:10;;;;;;;;;;;12.20;99.90;;;;;;5000856;28;19926;-51
2023/01/01 08:00:36;;;;;;;;;;;12.20;99.90;;;;;;5008913;28;19928;-53
2023/01/01 08:03:01;;;;;;;;;;;12.20;99.90;;;;;;5010139;28;19925;-53
2023/01/01 08:05:27;;;;;;;;;;;12.20;99.90;;;;;;5013125;28;19995;-54
2023/01/01 08:07:53;;;;;;;;;;;12.10;99.90;;;;;;5007401;28;19983;-51
2023/01/01 08:10:21;;;;;;;;;;;12.10;99.90;;;;;;5011657;28;20446;-52
2023/01/01 08:12:47;;;;;;;;;;;12.10;99.90;;;;;;5021025;28;19921;-51
2023/01/01 08:15:13;;;;;;;;;;;12.10;99.90;;;;;;5022911;28;19921;-52
2023/01/01 08:17:39;;;;;;;;;;;12.10;99.90;;;;;;5020033;28;20008;-55
2023/01/01 08:20:05;;;;;;;;;;;12.00;99.90;;;;;;5022198;28;19956;-56
2023/01/01 08:22:30;;;;;;;;;;;12.10;99.90;;;;;;5020544;28;19974;-51
2023/01/01 08:24:56;;;;;;;;;;;12.10;99.90;;;;;;5029933;28;20408;-52
2023/01/01 08:27:21;;;;;;;;;;;12.10;99.90;;;;;;5028583;28;20372;-51
2023/01/01 08:29:46;;;;;;;;;;;12.00;99.90;;;;;;5018531;28;20008;-55
2023/01/01 08:32:12;;;;;;;;;;;12.00;99.90;;;;;;5021510;28;19921;-55
2023/01/01 08:34:38;;;;;;;;;;;12.00;99.90;;;;;;5015338;28;19921;-53
2023/01/01 08:37:04;;;;;;;;;;;11.90;99.90;;;;;;5018610;28;20011;-55
2023/01/01 08:39:30;;;;;;;;;;;11.90;99.90;;;;;;5016333;28;20283;-54
2023/01/01 08:41:56;;;;;;;;;;;;;;;;;;5016110;28;19925;-51
2023/01/01 08:44:21;;;;;;;;;;;11.90;99.90;;;;;;5017585;28;19931;-55
2023/01/01 08:46:47;;;;;;;;;;;11.90;99.90;;;;;;5009850;28;19931;-56
2023/01/01 08:49:12;;;;;;;;;;;11.90;99.90;;;;;;5014750;28;19928;-55
2023/01/01 08:51:38;;;;;;;;;;;11.80;99.90;;;;;;5011926;28;19922;-53
2023/01/01 08:54:03;;;;;;;;;;;11.80;99.90;;;;;;5011399;28;20004;-51
2023/01/01 08:56:29;;;;;;;;;;;11.80;99.90;;;;;;5009056;28;19959;-52
2023/01/01 08:58:54;;;;;;;;;;;11.80;99.90;;;;;;5010907;28;19939;-54
2023/01/01 09:01:20;;;;;;;;;;;11.80;99.90;;;;;;5008412;28;19936;-52
2023/01/01 09:03:46;;;;;;;;;;;11.80;99.90;;;;;;5004915;28;19921;-53
2023/01/01 09:06:12;;;;;;;;;;;11.80;99.90;;;;;;5014480;28;19922;-54
2023/01/01 09:08:38;;;;;;;;;;;11.80;99.90;;;;;;5005668;28;20382;-55
2023/01/01 09:11:03;;;;;;;;;;;11.80;99.90;;;;;;5004723;28;19930;-51
2023/01/01 09:13:29;;;;;;;;;;;11.80;99.90;;;;;;5004635;28;19929;-52
2023/01/01 09:15:55;;;;;;;;;;;11.80;99.90;;;;;;5009554;28;19956;-52
2023/01/01 09:18:21;;;;;;;;;;;11.80;99.90;;;;;;5004536;28;20030;-55
2023/01/01 09:20:46;;;;;;;;;;;11.80;99.90;;;;;;5012280;28;20410;-54
2023/01/01 09:23:12;;;;;;;;;;;11.70;99.90;;;;;;5003424;28;19925;-56
2023/01/01 09:25:38;;;;;;;;;;;11.70;99.90;;;;;;5009886;28;19925;-55
2023/01/01 09:28:05;;;;;;;;;;;11.70;99.90;;;;;;5005582;28;19925;-52
2023/01/01 09:30:30;;;;;;;;;;;11.80;99.90;;;;;;5008925;28;19933;-53
2023/01/01 09:32:56;;;;;;;;;;;11.80;99.90;;;;;;5007150;28;20209;-54
2023/01/01 09:35:21;;;;;;;;;;;11.80;99.90;;;;;;5006463;28;20417;-54
2023/01/01 09:37:47;;;;;;;;;;;11.90;99.90;;;;;;5002763;28;20986;-54
2023/01/01 09:40:25;;;;;;;;;;;11.90;99.90;;;;;;5009027;28;19929;-55
2023/01/01 09:42:55;;;;;;;;;;;12.00;99.90;;;;;;5005510;28;20063;-52
2023/01/01 09:45:24;;;;;;;;;;;12.00;99.90;;;;;;5008122;28;19935;-52
2023/01/01 09:47:52;;;;;;;;;;;12.10;99.90;;;;;;5006967;28;20004;-53
2023/01/01 09:50:20;;;;;;;;;;;12.10;99.90;;;;;;5004986;28;20019;-55
2023/01/01 09:52:57;;;;;;;;;;;12.20;99.90;;;;;;5006230;28;19940;-51
2023/01/01 09:55:41;;;;;;;;;;;12.20;99.90;;;;;;5003213;28;20394;-54
2023/01/01 09:58:08;;;;;;;;;;;12.20;99.90;;;;;;5005822;28;19925;-55
2023/01/01 10:00:35;;;;;;;;;;;12.20;99.90;;;;;;5008128;28;20013;-52
2023/01/01 10:03:07;;;;;;;;;;;12.30;99.90;;;;;;5006689;28;20016;-53
2023/01/01 10:05:42;;;;;;;;;;;12.30;99.90;;;;;;5006117;28;19924;-54
2023/01/01 10:08:24;;;;;;;;;;;12.30;99.90;;;;;;5006356;28;19929;-55
2023/01/01 10:10:53;;;;;;;;;;;12.40;99.90;;;;;;5011914;28;20028;-53
2023/01/01 10:13:28;;;;;;;;;;;12.40;99.90;;;;;;5019831;28;19925;-54
2023/01/01 10:15:58;;;;;;;;;;;12.30;99.90;;;;;;5011186;28;20559;-55
2023/01/01 10:18:26;;;;;;;;;;;12.30;99.90;;;;;;5008445;28;20457;-55
2023/01/01 10:20:57;;;;;;;;;;;12.30;99.90;;;;;;5015314;28;20375;-56
2023/01/01 10:23:26;;;;;;;;;;;12.30;99.90;;;;;;5013444;28;20012;-54
2023/01/01 10:25:52;;;;;;;;;;;12.20;99.90;;;;;;5008464;28;19929;-54
2023/01/01 10:28:24;;;;;;;;;;;12.20;99.90;;;;;;5008711;28;20296;-53
2023/01/01 10:30:52;;;;;;;;;;;12.20;99.90;;;;;;5011752;28;20694;-54
2023/01/01 10:33:17;;;;;;;;;;;12.20;99.90;;;;;;5017216;28;19921;-51
2023/01/01 10:35:45;;;;;;;;;;;12.30;99.90;;;;;;5021198;28;19928;-54
2023/01/01 10:38:21;;;;;;;;;;;12.20;99.90;;;;;;5018575;28;20024;-54
2023/01/01 10:40:47;;;;;;;;;;;12.20;99.90;;;;;;5015019;28;19921;-52
2023/01/01 10:43:12;;;;;;;;;;;12.20;99.90;;;;;;5016547;28;19921;-55
2023/01/01 10:45:43;;;;;;;;;;;12.20;99.90;;;;;;5004287;28;19928;-56
2023/01/01 10:48:08;;;;;;;;;;;12.20;99.90;;;;;;5011452;28;19962;-55
2023/01/01 10:50:52;;;;;;;;;;;12.20;99.90;;;;;;5008799;28;19922;-54
2023/01/01 10:53:29;;;;;;;;;;;12.10;99.90;;;;;;5017854;28;19937;-55
2023/01/01 10:56:13;;;;;;;;;;;12.10;99.90;;;;;;5016416;28;20426;-55
2023/01/01 10:58:40;;;;;;;;;;;12.10;99.90;;;;;;5016946;28;20383;-54
2023/01/01 11:01:07;;;;;;;;;;;12.10;99.90;;;;;;5015578;28;19922;-56
2023/01/01 11:03:33;;;;;;;;;;;12.10;99.90;;;;;;5030083;28;19975;-56
2023/01/01 11:05:59;;;;;;;;;;;12.00;99.90;;;;;;5019747;28;19932;-53
2023/01/01 11:08:25;;;;;;;;;;;12.00;99.90;;;;;;5014240;28;19921;-56
2023/01/01 11:10:50;;;;;;;;;;;12.00;99.90;;;;;;5015327;28;20323;-54
2023/01/01 11:13:19;;;;;;;;;;;12.10;99.90;;;;;;5014543;28;19921;-51
2023/01/01 11:15:45;;;;;;;;;;;12.10;99.90;;;;;;5010493;28;19921;-53
2023/01/01 11:18:12;;;;;;;;;;;12.20;99.90;;;;;;5018967;28;20276;-51
2023/01/01 11:20:39;;;;;;;;;;;12.30;99.90;;;;;;5014928;28;19928;-55
2023/01/01 11:23:31;;;;;;;;;;;12.40;99.90;;;;;;5016848;28;21601;-54
2023/01/01 11:25:58;;;;;;;;;;;12.40;99.90;;;;;;5015585;28;20454;-51
2023/01/01 11:28:24;;;;;;;;;;;12.40;99.90;;;;;;5015978;28;19929;-51
2023/01/01 11:31:09;;;;;;;;;;;12.50;99.90;;;;;;5022367;28;19921;-54
2023/01/01 11:33:36;;;;;;;;;;;12.50;99.90;;;;;;5018059;28;19925;-54
2023/01/01 11:36:03;;;;;;;;;;;12.50;99.90;;;;;;5022158;28;19928;-55
2023/01/01 11:38:28;;;;;;;;;;;12.40;99.90;;;;;;5026354;28;19943;-56
2023/01/01 11:40:55;;;;;;;;;;;12.50;99.90;;;;;;5022630;28;20356;-53
2023/01/01 11:43:22;;;;;;;;;;;12.50;99.90;;;;;;5016668;28;20682;-53
2023/01/01 11:45:48;;;;;;;;;;;12.60;99.90;;;;;;5020122;28;20367;-52
2023/01/01 11:48:19;;;;;;;;;;;12.60;99.90;;;;;;5024897;28;19937;-53
2023/01/01 11:50:50;;;;;;;;;;;12.60;99.90;;;;;;5022207;28;19921;-54
2023/01/01 11:53:18;;;;;;;;;;;12.60;99.90;;;;;;5019230;28;19925;-55
2023/01/01 11:55:49;;;;;;;;;;;12.60;99.90;;;;;;5010302;28;19932;-55
2023/01/01 11:58:21;;;;;;;;;;;12.60;99.90;;;;;;5014910;28;19925;-52
2023/01/01 12:00:49;;;;;;;;;;;12.60;99.90;;;;;;5012602;28;19929;-53
2023/01/01 12:03:21;;;;;;;;;;;12.60;99.90;;;;;;5014561;28;20024;-53
2023/01/01 12:05:55;;;;;;;;;;;12.60;99.90;;;;;;5014397;28;19929;-54
2023/01/01 12:08:25;;;;;;;;;;;12.60;99.90;;;;;;5017241;28;20316;-56
2023/01/01 12:10:57;;;;;;;;;;;12.50;99.90;;;;;;5016191;28;19929;-54
2023/01/01 12:13:28;;;;;;;;;;;12.60;99.90;;;;;;5014764;28;19929;-54
2023/01/01 12:15:54;;;;;;;;;;;12.70;99.90;;;;;;5019999;28;19917;-55
2023/01/01 12:18:23;;;;;;;;;;;12.60;99.90;;;;;;5012648;28;19922;-55
2023/01/01 12:20:55;;;;;;;;;;;12.50;99.90;;;;;;5013414;28;20383;-55
2023/01/01 12:23:20;;;;;;;;;;;12.50;99.90;;;;;;5014727;28;19921;-52
2023/01/01 12:25:51;;;;;;;;;;;12.50;99.90;;;;;;5020226;28;20299;-54
2023/01/01 12:28:28;;;;;;;;;;;12.50;99.90;;;;;;5013224;28;19939;-56
2023/01/01 12:31:06;;;;;;;;;;;12.50;99.90;;;;;;5018780;28;19921;-56
2023/01/01 12:33:48;;;;;;;;;;;12.50;99.90;;;;;;5015256;28;19967;-55
2023/01/01 12:36:20;;;;;;;;;;;12.50;99.90;;;;;;5013249;28;20375;-54
2023/01/01 12:39:04;;;;;;;;;;;12.40;99.90;;;;;;5013658;28;19933;-55
2023/01/01 12:41:49;;;;;;;;;;;12.40;99.90;;;;;;5014445;28;19921;-54
2023/01/01 12:44:19;;;;;;;;;;;12.40;99.90;;;;;;5014369;28;20396;-55
2023/01/01 12:46:45;;;;;;;;;;;12.40;99.90;;;;;;5014090;28;20291;-55
2023/01/01 12:49:10;;;;;;;;;;;12.40;99.90;;;;;;5017425;28;19929;-54
2023/01/01 12:51:42;;;;;;;;;;;12.40;99.90;;;;;;5017589;28;19933;-55
2023/01/01 12:54:22;;;;;;;;;;;12.40;99.90;;;;;;5012532;28;19921;-53
2023/01/01 12:56:47;;;;;;;;;;;12.40;99.90;;;;;;5013932;28;19975;-56
2023/01/01 12:59:16;;;;;;;;;;;12.40;99.90;;;;;;5011141;28;19933;-54
2023/01/01 13:01:42;;;;;;;;;;;12.40;99.90;;;;;;5014585;28;19925;-53
2023/01/01 13:04:13;;;;;;;;;;;12.40;99.90;;;;;;5013113;28;19936;-54
2023/01/01 13:06:42;;;;;;;;;;;12.40;99.90;;;;;;5013171;28;19925;-54
2023/01/01 13:09:14;;;;;;;;;;;12.40;99.90;;;;;;5014915;28;20368;-54
2023/01/01 13:11:40;;;;;;;;;;;12.40;99.90;;;;;;5025552;28;19925;-55
2023/01/01 13:14:06;;;;;;;;;;;12.40;99.90;;;;;;5031563;28;19936;-54
2023/01/01 13:16:40;;;;;;;;;;;12.40;99.90;;;;;;5013878;28;19979;-52
2023/01/01 13:19:06;;;;;;;;;;;12.40;99.90;;;;;;5013011;28;19921;-54
2023/01/01 13:21:31;;;;;;;;;;;12.40;99.90;;;;;;5013103;28;20031;-55
2023/01/01 13:24:00;;;;;;;;;;;12.40;99.90;;;;;;5012833;28;19983;-55
2023/01/01 13:26:26;;;;;;;;;;;12.40;99.90;;;;;;5018902;28;19921;-52
2023/01/01 13:28:51;;;;;;;;;;;12.40;99.90;;;;;;5029497;28;19925;-52
2023/01/01 13:31:17;;;;;;;;;;;12.40;99.90;;;;;;5014379;28;20402;-53
2023/01/01 13:33:42;;;;;;;;;;;12.40;99.90;;;;;;5020848;28;19921;-55
2023/01/01 13:36:08;;;;;;;;;;;12.40;99.90;;;;;;5031898;28;19928;-53
2023/01/01 13:38:42;;;;;;;;;;;12.40;99.90;;;;;;5034778;28;19921;-54
2023/01/01 13:41:27;;;;;;;;;;;12.40;99.90;;;;;;5030483;28;20323;-54
2023/01/01 13:43:58;;;;;;;;;;;12.30;99.90;;;;;;5013459;28;19936;-52
2023/01/01 13:46:31;;;;;;;;;;;12.30;99.90;;;;;;5034429;28;19968;-50
2023/01/01 13:49:12;;;;;;;;;;;12.30;99.90;;;;;;5034589;28;19983;-52
2023/01/01 13:51:57;;;;;;;;;;;12.30;99.90;;;;;;5015151;28;19928;-52
2023/01/01 13:54:35;;;;;;;;;;;12.30;99.90;;;;;;5013422;28;19922;-55
2023/01/01 13:57:14;;;;;;;;;;;12.30;99.90;;;;;;5025560;28;20296;-52
2023/01/01 13:59:53;;;;;;;;;;;12.20;99.90;;;;;;5034287;28;20030;-53
2023/01/01 14:02:21;;;;;;;;;;;12.30;99.90;;;;;;5022367;28;20438;-51
2023/01/01 14:04:53;;;;;;;;;;;12.20;99.90;;;;;;5014054;28;20299;-54
2023/01/01 14:07:25;;;;;;;;;;;12.20;99.90;;;;;;5013675;28;20401;-55
2023/01/01 14:09:50;;;;;;;;;;;12.20;99.90;;;;;;5014676;28;19989;-55
2023/01/01 14:12:17;;;;;;;;;;;12.20;99.90;;;;;;5014144;28;19933;-52
2023/01/01 14:14:43;;;;;;;;;;;12.20;99.90;;;;;;5014041;28;19921;-54
2023/01/01 14:17:12;;;;;;;;;;;12.20;99.90;;;;;;5014130;28;19922;-53
2023/01/01 14:19:39;;;;;;;;;;;12.10;99.90;;;;;;5026067;28;19925;-55
2023/01/01 14:22:06;;;;;;;;;;;12.10;99.90;;;;;;5032594;28;20326;-54
2023/01/01 14:24:40;;;;;;;;;;;12.10;99.90;;;;;;5024817;28;19948;-53
2023/01/01 14:27:06;;;;;;;;;;;12.10;99.90;;;;;;5014086;28;19967;-54
2023/01/01 14:29:31;;;;;;;;;;;12.10;99.90;;;;;;5014268;28;20286;-51
2023/01/01 14:32:11;;;;;;;;;;;12.10;99.90;;;;;;5013795;28;19921;-55